KUNO

Details ICAO KUNO
Name WEST PLAINS MUNI
Region United States
Timezone America/Chicago (UTC-6.0)
Plans Departing 2
Arriving 1
Stats Elevation 1,228 ft / 374 m (AMSL)
Location 36.878425° -91.902675°
Runways 1
Magnetic Variation 0.129° W
Sunrise 2017-12-12 13:12:48 UTC / 2017-12-12 07:12:48 Local
Sunset 2017-12-12 22:52:58 UTC / 2017-12-12 16:52:58 Local
Advertisement - Login to hide

Runways

ID Width Length Bearing (true) Bearing (mag) Surface Threshold Offset Overrun Length
18 75 ft / 23 m 5,114 ft / 1,559 m 180.89° 181.02° Asphalt 0 ft / 0 m 0 ft / 0 m
36 75 ft / 23 m 5,114 ft / 1,559 m 0.89° 1.02° Asphalt 0 ft / 0 m 0 ft / 0 m

Map

Weather


0- 5 10 15 20 25 30 35+ Temperature / ° C

Clouds and Precipitation
Forecast for 2017-12-12 06:00 UTC. Updated an hour ago

Ground ~20,000 ft ~40,000 ft Winds

METAR

KUNO 120553Z AUTO 31009KT 10SM OVC048 07/M02 A3007 RMK AO2 SLP179 60000 T00721017 10111 20061 402000006 53012

TAF

Not found

Frequencies

Recorded 123.82 MHz ASOS
Unicom 122.80 MHz CTAF/UNICOM
Warning: Do not use this data for real-world aviation or navigation. No guarantee of current accuracy is given.